Time;durP1;ratioP1;P1;durP2;ratioP2;P2;SDS_P1;SDS_P2;PMS_P1;PMS_P2;Temp;Humidity;BMP_temperature;BMP_pressure;BME280_temperature;BME280_humidity;BME280_pressure;Samples;Min_cycle;Max_cycle;Signal;HPM_P1;HPM_P2
2022/01/31 00:01:13;;;;;;;;;;;7.50;99.90;;;;;;5054982;28;20298;-59
2022/01/31 00:03:39;;;;;;;;;;;7.60;99.90;;;;;;5053602;28;19917;-60
2022/01/31 00:06:04;;;;;;;;;;;7.50;99.90;;;;;;5052280;28;19909;-61
2022/01/31 00:08:32;;;;;;;;;;;7.50;99.90;;;;;;5054995;28;19913;-61
2022/01/31 00:10:58;;;;;;;;;;;7.40;99.90;;;;;;5043060;28;20381;-61
2022/01/31 00:13:35;;;;;;;;;;;7.50;99.90;;;;;;5046066;28;19912;-61
2022/01/31 00:16:02;;;;;;;;;;;7.50;99.90;;;;;;5054657;28;20297;-61
2022/01/31 00:18:27;;;;;;;;;;;7.50;99.90;;;;;;5054259;28;19993;-61
2022/01/31 00:20:53;;;;;;;;;;;7.60;99.90;;;;;;5053150;28;19940;-60
2022/01/31 00:23:18;;;;;;;;;;;7.50;99.90;;;;;;5054419;28;19932;-60
2022/01/31 00:25:44;;;;;;;;;;;7.60;99.90;;;;;;5054113;28;19928;-60
2022/01/31 00:28:10;;;;;;;;;;;7.60;99.90;;;;;;5054355;28;19919;-61
2022/01/31 00:30:35;;;;;;;;;;;7.50;99.90;;;;;;5054442;28;19964;-62
2022/01/31 00:33:01;;;;;;;;;;;7.40;99.90;;;;;;5052743;28;19908;-60
2022/01/31 00:35:26;;;;;;;;;;;7.40;99.90;;;;;;5052327;28;19940;-61
2022/01/31 00:37:52;;;;;;;;;;;7.40;99.90;;;;;;5053938;28;19913;-61
2022/01/31 00:40:19;;;;;;;;;;;7.40;99.90;;;;;;5053715;28;19966;-61
2022/01/31 00:42:44;;;;;;;;;;;7.30;99.90;;;;;;5053282;28;19978;-61
2022/01/31 00:47:37;;;;;;;;;;;7.30;99.90;;;;;;5053867;28;19909;-59
2022/01/31 00:50:08;;;;;;;;;;;7.20;99.90;;;;;;5053361;28;20388;-61
2022/01/31 00:52:35;;;;;;;;;;;7.20;99.90;;;;;;5054082;28;19917;-61
2022/01/31 00:55:01;;;;;;;;;;;7.20;99.90;;;;;;5048305;28;20389;-58
2022/01/31 00:57:26;;;;;;;;;;;7.20;99.90;;;;;;5031656;28;19944;-59
2022/01/31 00:59:53;;;;;;;;;;;7.30;99.90;;;;;;5051113;28;20380;-59
2022/01/31 01:02:19;;;;;;;;;;;7.30;99.90;;;;;;5040746;28;20266;-60
2022/01/31 01:04:44;;;;;;;;;;;7.40;99.90;;;;;;5047425;28;20369;-61
2022/01/31 01:07:11;;;;;;;;;;;7.30;99.90;;;;;;5053564;28;20300;-62
2022/01/31 01:09:37;;;;;;;;;;;7.30;99.90;;;;;;5053554;28;19916;-61
2022/01/31 01:12:06;;;;;;;;;;;7.30;99.90;;;;;;5050873;28;19916;-59
2022/01/31 01:14:31;;;;;;;;;;;7.30;99.90;;;;;;5048398;28;19920;-61
2022/01/31 01:16:57;;;;;;;;;;;7.40;99.90;;;;;;5051542;28;19917;-61
2022/01/31 01:19:22;;;;;;;;;;;7.30;99.90;;;;;;5052941;28;20003;-61
2022/01/31 01:21:48;;;;;;;;;;;7.30;99.90;;;;;;5053556;28;19912;-61
2022/01/31 01:24:15;;;;;;;;;;;7.30;99.90;;;;;;5051457;28;19921;-60
2022/01/31 01:26:41;;;;;;;;;;;7.30;99.90;;;;;;5053188;28;19912;-61
2022/01/31 01:29:07;;;;;;;;;;;7.30;99.90;;;;;;5053432;28;20019;-60
2022/01/31 01:31:32;;;;;;;;;;;7.30;99.90;;;;;;5052674;28;20027;-61
2022/01/31 01:33:58;;;;;;;;;;;7.40;99.90;;;;;;5053517;28;20296;-60
2022/01/31 01:36:26;;;;;;;;;;;7.40;99.90;;;;;;5051927;28;19921;-61
2022/01/31 01:38:51;;;;;;;;;;;7.40;99.90;;;;;;5052577;28;19955;-61
2022/01/31 01:41:17;;;;;;;;;;;7.50;99.90;;;;;;5053565;28;19948;-60
2022/01/31 01:43:43;;;;;;;;;;;7.50;99.90;;;;;;5053264;28;20008;-60
2022/01/31 01:46:09;;;;;;;;;;;7.40;99.90;;;;;;5052772;28;19988;-61
2022/01/31 01:48:34;;;;;;;;;;;7.50;99.90;;;;;;5053374;28;19916;-61
2022/01/31 01:51:00;;;;;;;;;;;7.50;99.90;;;;;;5051039;28;19979;-62
2022/01/31 01:53:26;;;;;;;;;;;7.40;99.90;;;;;;5052201;28;19915;-61
2022/01/31 01:55:53;;;;;;;;;;;7.40;99.90;;;;;;5057051;28;19912;-60
2022/01/31 01:58:22;;;;;;;;;;;7.50;99.90;;;;;;5057448;28;19909;-61
2022/01/31 02:00:58;;;;;;;;;;;7.60;99.90;;;;;;5057128;28;19912;-60
2022/01/31 02:03:25;;;;;;;;;;;7.60;99.90;;;;;;5055396;28;19908;-60
2022/01/31 02:05:50;;;;;;;;;;;7.50;99.90;;;;;;5053374;28;19917;-61
2022/01/31 02:08:18;;;;;;;;;;;7.50;99.90;;;;;;5057255;28;19909;-61
2022/01/31 02:10:44;;;;;;;;;;;7.50;99.90;;;;;;5056906;28;20309;-61
2022/01/31 02:13:10;;;;;;;;;;;7.60;99.90;;;;;;5056691;28;19912;-61
2022/01/31 02:15:36;;;;;;;;;;;7.60;99.90;;;;;;5056541;28;19913;-61
2022/01/31 02:18:02;;;;;;;;;;;7.60;99.90;;;;;;5059593;28;19916;-61
2022/01/31 02:20:27;;;;;;;;;;;7.60;99.90;;;;;;5056446;28;19956;-59
2022/01/31 02:22:53;;;;;;;;;;;7.60;99.90;;;;;;5056446;28;20003;-60
2022/01/31 02:25:19;;;;;;;;;;;7.50;99.90;;;;;;5055343;28;19954;-61
2022/01/31 02:27:44;;;;;;;;;;;7.60;99.90;;;;;;5056982;28;19912;-61
2022/01/31 02:30:14;;;;;;;;;;;7.60;99.90;;;;;;5054162;28;20019;-61
2022/01/31 02:32:40;;;;;;;;;;;7.60;99.90;;;;;;5055882;28;20274;-61
2022/01/31 02:35:06;;;;;;;;;;;7.60;99.90;;;;;;5056651;28;19927;-61
2022/01/31 02:37:32;;;;;;;;;;;7.60;99.90;;;;;;5056553;28;19944;-61
2022/01/31 02:39:57;;;;;;;;;;;7.60;99.90;;;;;;5056629;28;19991;-62
2022/01/31 02:42:23;;;;;;;;;;;7.60;99.90;;;;;;5054631;28;19959;-61
2022/01/31 02:44:49;;;;;;;;;;;7.60;99.90;;;;;;5054740;28;19924;-59
2022/01/31 02:47:21;;;;;;;;;;;7.60;99.90;;;;;;5056116;28;19913;-60
2022/01/31 02:49:52;;;;;;;;;;;7.60;99.90;;;;;;5055538;28;20384;-61
2022/01/31 02:52:18;;;;;;;;;;;7.70;99.90;;;;;;5056797;28;19920;-62
2022/01/31 02:54:44;;;;;;;;;;;7.70;99.90;;;;;;5056217;28;19912;-58
2022/01/31 02:57:10;;;;;;;;;;;7.70;99.90;;;;;;5054060;28;20049;-60
2022/01/31 02:59:36;;;;;;;;;;;7.70;99.90;;;;;;5056430;28;19931;-61
2022/01/31 03:02:01;;;;;;;;;;;7.70;99.90;;;;;;5045698;28;19914;-61
2022/01/31 03:04:27;;;;;;;;;;;7.80;99.90;;;;;;5047330;28;20337;-61
2022/01/31 03:06:53;;;;;;;;;;;7.80;99.90;;;;;;5055508;28;19913;-62
2022/01/31 03:09:19;;;;;;;;;;;7.80;99.90;;;;;;5056371;28;20023;-61
2022/01/31 03:11:44;;;;;;;;;;;7.80;99.90;;;;;;5053608;28;20373;-61
2022/01/31 03:14:10;;;;;;;;;;;7.80;99.90;;;;;;5055374;28;19916;-62
2022/01/31 03:16:40;;;;;;;;;;;7.70;99.90;;;;;;5056156;28;19920;-62
2022/01/31 03:19:09;;;;;;;;;;;7.80;99.90;;;;;;5048569;28;19913;-62
2022/01/31 03:21:34;;;;;;;;;;;7.80;99.90;;;;;;5039965;28;20304;-60
2022/01/31 03:24:00;;;;;;;;;;;7.80;99.90;;;;;;5053465;28;19921;-61
2022/01/31 03:26:26;;;;;;;;;;;7.80;99.90;;;;;;5055231;28;19919;-61
2022/01/31 03:28:53;;;;;;;;;;;7.80;99.90;;;;;;5054380;28;19916;-61
2022/01/31 03:31:22;;;;;;;;;;;7.90;99.90;;;;;;5055306;28;19917;-62
2022/01/31 03:33:48;;;;;;;;;;;7.90;99.90;;;;;;5055539;28;19927;-61
2022/01/31 03:36:14;;;;;;;;;;;7.90;99.90;;;;;;5055860;28;20312;-60
2022/01/31 03:38:42;;;;;;;;;;;7.90;99.90;;;;;;5055188;28;20673;-61
2022/01/31 03:41:08;;;;;;;;;;;7.90;99.90;;;;;;5055627;28;20360;-61
2022/01/31 03:43:34;;;;;;;;;;;8.00;99.90;;;;;;5048184;28;19920;-62
2022/01/31 03:45:59;;;;;;;;;;;8.00;99.90;;;;;;5043080;28;19938;-61
2022/01/31 03:48:27;;;;;;;;;;;8.10;99.90;;;;;;5052620;28;19921;-61
2022/01/31 03:50:53;;;;;;;;;;;8.10;99.90;;;;;;5053162;28;19999;-61
2022/01/31 03:53:19;;;;;;;;;;;8.10;99.90;;;;;;5055141;28;20317;-61
2022/01/31 03:55:44;;;;;;;;;;;8.20;99.90;;;;;;5054794;28;19924;-59
2022/01/31 03:58:10;;;;;;;;;;;8.20;99.90;;;;;;5054460;28;19917;-60
2022/01/31 04:00:35;;;;;;;;;;;8.20;99.90;;;;;;5055324;28;19952;-62
2022/01/31 04:03:01;;;;;;;;;;;8.20;99.90;;;;;;5048721;28;19909;-60
2022/01/31 04:05:26;;;;;;;;;;;8.20;99.90;;;;;;5054672;28;20964;-58
2022/01/31 04:07:52;;;;;;;;;;;8.30;99.90;;;;;;5054356;28;20270;-62
2022/01/31 04:10:17;;;;;;;;;;;8.30;99.90;;;;;;5054517;28;19921;-60
2022/01/31 04:12:43;;;;;;;;;;;8.30;99.90;;;;;;5054532;28;19920;-60
2022/01/31 04:15:09;;;;;;;;;;;8.30;99.90;;;;;;5052217;28;19908;-59
2022/01/31 04:17:36;;;;;;;;;;;8.30;99.90;;;;;;5052987;28;19912;-61
2022/01/31 04:20:02;;;;;;;;;;;8.30;99.90;;;;;;5052748;28;19913;-60
2022/01/31 04:22:31;;;;;;;;;;;8.20;99.90;;;;;;5054301;28;20019;-59
2022/01/31 04:25:01;;;;;;;;;;;8.20;99.90;;;;;;5054418;28;20396;-58
2022/01/31 04:27:32;;;;;;;;;;;8.30;99.90;;;;;;5053578;28;19927;-61
2022/01/31 04:29:57;;;;;;;;;;;8.20;99.90;;;;;;5053059;28;19924;-60
2022/01/31 04:32:23;;;;;;;;;;;8.20;99.90;;;;;;5054013;28;19913;-60
2022/01/31 04:34:48;;;;;;;;;;;8.20;99.90;;;;;;5054344;28;19935;-62
2022/01/31 04:37:14;;;;;;;;;;;8.20;99.90;;;;;;5054336;28;19986;-62
2022/01/31 04:39:40;;;;;;;;;;;8.30;99.90;;;;;;5054184;28;23527;-60
2022/01/31 04:42:06;;;;;;;;;;;8.20;99.90;;;;;;5051845;28;19909;-62
2022/01/31 04:44:32;;;;;;;;;;;8.30;99.90;;;;;;5054483;28;19923;-60
2022/01/31 04:46:57;;;;;;;;;;;8.30;99.90;;;;;;5054046;28;20297;-60
2022/01/31 04:49:23;;;;;;;;;;;8.30;99.90;;;;;;5054060;28;19928;-61
2022/01/31 04:51:49;;;;;;;;;;;8.30;99.90;;;;;;5053956;28;19978;-60
2022/01/31 04:54:15;;;;;;;;;;;8.30;99.90;;;;;;5051507;28;19913;-62
2022/01/31 04:56:42;;;;;;;;;;;8.30;99.90;;;;;;5038598;28;19920;-60
2022/01/31 04:59:08;;;;;;;;;;;8.20;99.90;;;;;;5051065;28;19955;-61
2022/01/31 05:01:34;;;;;;;;;;;8.10;99.90;;;;;;5053748;28;20003;-62
2022/01/31 05:03:59;;;;;;;;;;;8.10;99.90;;;;;;5054425;28;20043;-61
2022/01/31 05:06:33;;;;;;;;;;;8.20;99.90;;;;;;5052345;28;19916;-60
2022/01/31 05:08:59;;;;;;;;;;;8.20;99.90;;;;;;5051166;28;19916;-61
2022/01/31 05:11:24;;;;;;;;;;;8.20;99.90;;;;;;5053477;28;19916;-61
2022/01/31 05:13:50;;;;;;;;;;;8.10;99.90;;;;;;5053827;28;19923;-60
2022/01/31 05:16:15;;;;;;;;;;;8.20;99.90;;;;;;5053666;28;19913;-61
2022/01/31 05:18:41;;;;;;;;;;;8.20;99.90;;;;;;5053697;28;19912;-61
2022/01/31 05:21:08;;;;;;;;;;;8.20;99.90;;;;;;5050087;28;19931;-60
2022/01/31 05:23:34;;;;;;;;;;;8.30;99.90;;;;;;5051433;28;20476;-59
2022/01/31 05:26:00;;;;;;;;;;;8.20;99.90;;;;;;5049873;28;19916;-61
2022/01/31 05:28:26;;;;;;;;;;;8.30;99.90;;;;;;5052759;28;19919;-60
2022/01/31 05:30:51;;;;;;;;;;;8.30;99.90;;;;;;5053724;28;19935;-61
2022/01/31 05:33:17;;;;;;;;;;;8.30;99.90;;;;;;5050711;28;19913;-60
2022/01/31 05:35:44;;;;;;;;;;;8.20;99.90;;;;;;5053590;28;19909;-61
2022/01/31 05:38:12;;;;;;;;;;;8.20;99.90;;;;;;5053108;28;19949;-60
2022/01/31 05:40:41;;;;;;;;;;;8.10;99.90;;;;;;5053290;28;19921;-61
2022/01/31 05:43:06;;;;;;;;;;;8.10;99.90;;;;;;5053002;28;19912;-61
2022/01/31 05:45:32;;;;;;;;;;;8.10;99.90;;;;;;5051556;28;19916;-61
2022/01/31 05:47:57;;;;;;;;;;;8.10;99.90;;;;;;5051423;28;19916;-63
2022/01/31 05:50:23;;;;;;;;;;;8.10;99.90;;;;;;5052991;28;20022;-61
2022/01/31 05:52:48;;;;;;;;;;;8.10;99.90;;;;;;5053088;28;19941;-60
2022/01/31 05:55:14;;;;;;;;;;;8.00;99.90;;;;;;5052811;28;19917;-58
2022/01/31 05:57:41;;;;;;;;;;;7.90;99.90;;;;;;5053020;28;20010;-59
2022/01/31 06:00:07;;;;;;;;;;;7.90;99.90;;;;;;5050759;28;20331;-62
2022/01/31 06:02:33;;;;;;;;;;;7.90;99.90;;;;;;5053072;28;19917;-62
2022/01/31 06:04:58;;;;;;;;;;;7.90;99.90;;;;;;5052679;28;20257;-60
2022/01/31 06:07:24;;;;;;;;;;;7.80;99.90;;;;;;5051937;28;19913;-61
2022/01/31 06:09:49;;;;;;;;;;;7.80;99.90;;;;;;5052444;28;19917;-60
2022/01/31 06:12:16;;;;;;;;;;;7.70;99.90;;;;;;5050826;28;20316;-62
2022/01/31 06:14:41;;;;;;;;;;;7.80;99.90;;;;;;5052896;28;19909;-61
2022/01/31 06:17:07;;;;;;;;;;;7.80;99.90;;;;;;5052901;28;19973;-63
2022/01/31 06:19:32;;;;;;;;;;;7.80;99.90;;;;;;5052673;28;19913;-61
2022/01/31 06:21:58;;;;;;;;;;;7.80;99.90;;;;;;5051990;28;19917;-61
2022/01/31 06:24:24;;;;;;;;;;;7.80;99.90;;;;;;5051582;28;19927;-59
2022/01/31 06:26:49;;;;;;;;;;;7.80;99.90;;;;;;5049784;28;20411;-61
2022/01/31 06:29:15;;;;;;;;;;;7.80;99.90;;;;;;5052534;28;19917;-62
2022/01/31 06:31:40;;;;;;;;;;;7.70;99.90;;;;;;5052410;28;19917;-60
2022/01/31 06:34:06;;;;;;;;;;;7.80;99.90;;;;;;5051352;28;19963;-61
2022/01/31 06:36:31;;;;;;;;;;;7.80;99.90;;;;;;5051659;28;19921;-60
2022/01/31 06:38:57;;;;;;;;;;;7.80;99.90;;;;;;5051327;28;19916;-62
2022/01/31 06:41:23;;;;;;;;;;;7.70;99.90;;;;;;5054112;28;19909;-61
2022/01/31 06:43:49;;;;;;;;;;;7.70;99.90;;;;;;5056109;28;19920;-62
2022/01/31 06:46:15;;;;;;;;;;;7.70;99.90;;;;;;5055830;28;19913;-63
2022/01/31 06:48:41;;;;;;;;;;;7.70;99.90;;;;;;5056390;28;20282;-61
2022/01/31 06:51:07;;;;;;;;;;;7.70;99.90;;;;;;5057242;28;19921;-58
2022/01/31 06:53:34;;;;;;;;;;;7.60;99.90;;;;;;5056801;28;19920;-60
2022/01/31 06:56:00;;;;;;;;;;;7.60;99.90;;;;;;5205850;22;20330;-69
2022/01/31 06:58:26;;;;;;;;;;;7.60;99.90;;;;;;5060410;28;19923;-69
2022/01/31 07:00:53;;;;;;;;;;;7.60;99.90;;;;;;5055252;28;19913;-68
2022/01/31 07:03:18;;;;;;;;;;;7.50;99.90;;;;;;5054841;28;19909;-67
2022/01/31 07:05:44;;;;;;;;;;;7.50;99.90;;;;;;5055995;28;19909;-67
2022/01/31 07:08:11;;;;;;;;;;;7.50;99.90;;;;;;5050536;28;19947;-67
2022/01/31 07:10:38;;;;;;;;;;;7.60;99.90;;;;;;5054289;28;19927;-69
2022/01/31 07:13:11;;;;;;;;;;;7.50;99.90;;;;;;5055389;28;19952;-68
2022/01/31 07:15:37;;;;;;;;;;;7.50;99.90;;;;;;5042731;28;19913;-68
2022/01/31 07:18:03;;;;;;;;;;;7.50;99.90;;;;;;5056710;28;19920;-67
2022/01/31 07:20:40;;;;;;;;;;;7.40;99.90;;;;;;5053833;28;19913;-68
2022/01/31 07:26:01;;;;;;;;;;;7.40;99.90;;;;;;4989655;28;19945;-62
2022/01/31 07:28:27;;;;;;;;;;;7.50;99.90;;;;;;4988435;28;19936;-61
2022/01/31 07:30:52;;;;;;;;;;;7.40;99.90;;;;;;4991332;28;19976;-62
2022/01/31 07:33:18;;;;;;;;;;;7.40;99.90;;;;;;4982299;28;19962;-61
2022/01/31 07:35:46;;;;;;;;;;;7.40;99.90;;;;;;4994479;28;19921;-61
2022/01/31 07:38:11;;;;;;;;;;;7.40;99.90;;;;;;4989682;28;19917;-61
2022/01/31 07:40:38;;;;;;;;;;;7.50;99.90;;;;;;4982594;28;19929;-61
2022/01/31 07:43:03;;;;;;;;;;;7.50;99.90;;;;;;4987634;28;19914;-59
2022/01/31 07:45:29;;;;;;;;;;;7.50;99.90;;;;;;4976489;28;19925;-60
2022/01/31 07:47:55;;;;;;;;;;;7.50;99.90;;;;;;4982644;28;19921;-62
2022/01/31 07:50:20;;;;;;;;;;;7.50;99.90;;;;;;4987538;28;19972;-60
2022/01/31 07:52:46;;;;;;;;;;;7.50;99.90;;;;;;4986930;28;20382;-60
2022/01/31 07:55:12;;;;;;;;;;;7.50;99.90;;;;;;5224518;22;19933;-59
2022/01/31 07:57:40;;;;;;;;;;;7.50;99.90;;;;;;5045615;28;20327;-59
2022/01/31 08:00:06;;;;;;;;;;;7.60;99.90;;;;;;5045630;28;19965;-59
2022/01/31 08:02:32;;;;;;;;;;;7.60;99.90;;;;;;5047766;28;19928;-59
2022/01/31 08:04:58;;;;;;;;;;;7.60;99.90;;;;;;5047088;28;19913;-59
2022/01/31 08:07:23;;;;;;;;;;;7.60;99.90;;;;;;5045279;28;20355;-59
2022/01/31 08:09:49;;;;;;;;;;;7.60;99.90;;;;;;5047711;28;19920;-58
2022/01/31 08:12:15;;;;;;;;;;;7.60;99.90;;;;;;5045672;28;19913;-59
2022/01/31 08:14:40;;;;;;;;;;;7.60;99.90;;;;;;5050662;28;20373;-60
2022/01/31 08:17:06;;;;;;;;;;;7.60;99.90;;;;;;5045954;28;19917;-60
2022/01/31 08:19:33;;;;;;;;;;;7.60;99.90;;;;;;5045538;28;19921;-59
2022/01/31 08:21:59;;;;;;;;;;;7.60;99.90;;;;;;5046526;28;20722;-59
2022/01/31 08:24:24;;;;;;;;;;;7.60;99.90;;;;;;5028875;28;20077;-59
2022/01/31 08:26:50;;;;;;;;;;;7.70;99.90;;;;;;5050209;28;19913;-59
2022/01/31 08:31:46;;;;;;;;;;;7.70;99.90;;;;;;5046354;28;20931;-58
2022/01/31 08:36:42;;;;;;;;;;;7.80;99.90;;;;;;5044900;28;20031;-60
2022/01/31 08:39:09;;;;;;;;;;;7.90;99.90;;;;;;5047562;28;19997;-59
2022/01/31 08:41:36;;;;;;;;;;;7.80;99.90;;;;;;5047522;28;20008;-62
2022/01/31 08:44:02;;;;;;;;;;;7.80;99.90;;;;;;5043453;28;19921;-59
2022/01/31 08:46:27;;;;;;;;;;;7.90;99.90;;;;;;5046274;28;19912;-59
2022/01/31 08:48:55;;;;;;;;;;;7.90;99.90;;;;;;5045797;28;19920;-60
2022/01/31 08:51:20;;;;;;;;;;;7.90;99.90;;;;;;5046670;28;19956;-60
2022/01/31 08:53:48;;;;;;;;;;;8.00;99.90;;;;;;5046875;28;20006;-59
2022/01/31 08:56:14;;;;;;;;;;;7.90;99.90;;;;;;5045459;28;19961;-59
2022/01/31 08:58:48;;;;;;;;;;;7.90;99.90;;;;;;5045669;28;20344;-59
2022/01/31 09:01:18;;;;;;;;;;;7.90;99.90;;;;;;5046313;28;20589;-60
2022/01/31 09:04:00;;;;;;;;;;;8.00;99.90;;;;;;5046201;28;19913;-59
2022/01/31 09:06:27;;;;;;;;;;;8.00;99.90;;;;;;5046970;28;19935;-59
2022/01/31 09:08:53;;;;;;;;;;;8.10;99.90;;;;;;5031708;28;20369;-59
2022/01/31 09:11:18;;;;;;;;;;;8.10;99.90;;;;;;5046169;28;19947;-58
2022/01/31 09:13:44;;;;;;;;;;;8.10;99.90;;;;;;5047111;28;20372;-59
2022/01/31 09:16:10;;;;;;;;;;;8.10;99.90;;;;;;5046262;28;19920;-59
2022/01/31 09:18:36;;;;;;;;;;;8.20;99.90;;;;;;5046353;28;19974;-59
2022/01/31 09:21:04;;;;;;;;;;;8.20;99.90;;;;;;5049031;28;19928;-59
2022/01/31 09:23:30;;;;;;;;;;;8.10;99.90;;;;;;5046383;28;20385;-59
2022/01/31 09:28:31;;;;;;;;;;;8.10;99.90;;;;;;5044539;23;19929;-73
2022/01/31 09:30:56;;;;;;;;;;;8.10;99.90;;;;;;5065559;28;19920;-73
2022/01/31 09:33:22;;;;;;;;;;;8.10;99.90;;;;;;5055609;28;20323;-73
2022/01/31 09:35:48;;;;;;;;;;;8.00;99.90;;;;;;5048753;28;19993;-75
2022/01/31 09:38:17;;;;;;;;;;;8.10;99.90;;;;;;5207080;22;19923;-72
2022/01/31 09:40:42;;;;;;;;;;;8.20;99.90;;;;;;5095616;28;19924;-58
2022/01/31 09:51:01;;;;;;;;;;;8.30;99.90;;;;;;5079066;28;19942;-59
2022/01/31 09:53:29;;;;;;;;;;;8.40;99.90;;;;;;5073417;28;20033;-61
2022/01/31 09:55:55;;;;;;;;;;;8.40;99.90;;;;;;5055798;28;20014;-60
2022/01/31 09:58:20;;;;;;;;;;;8.50;99.90;;;;;;5079040;28;20029;-60
2022/01/31 10:00:46;;;;;;;;;;;8.40;99.90;;;;;;5073212;28;20009;-60
2022/01/31 10:03:12;;;;;;;;;;;8.50;99.90;;;;;;5076532;28;19958;-61
2022/01/31 10:05:37;;;;;;;;;;;8.50;99.90;;;;;;5081389;28;20372;-60
2022/01/31 10:08:11;;;;;;;;;;;8.50;99.90;;;;;;5072083;28;19974;-59
2022/01/31 10:10:40;;;;;;;;;;;8.40;99.90;;;;;;5058054;28;19924;-63
2022/01/31 10:16:27;;;;;;;;;;;8.40;99.90;;;;;;5073402;28;20022;-60
2022/01/31 10:19:06;;;;;;;;;;;8.30;99.90;;;;;;5084225;28;20430;-58
2022/01/31 10:21:32;;;;;;;;;;;8.30;99.90;;;;;;5085487;28;20238;-58
2022/01/31 10:23:58;;;;;;;;;;;8.30;99.90;;;;;;5084429;28;19912;-60
2022/01/31 10:26:28;;;;;;;;;;;8.30;99.90;;;;;;5082587;28;20014;-59
2022/01/31 10:29:09;;;;;;;;;;;8.30;99.90;;;;;;5084056;28;19912;-61
2022/01/31 10:31:35;;;;;;;;;;;8.40;99.70;;;;;;5080561;28;19924;-60
2022/01/31 10:34:14;;;;;;;;;;;8.50;99.90;;;;;;5081440;28;20656;-61
2022/01/31 10:36:39;;;;;;;;;;;8.50;99.30;;;;;;5083704;28;19919;-60
2022/01/31 10:39:14;;;;;;;;;;;8.40;99.80;;;;;;5087913;28;20303;-60
2022/01/31 10:45:24;;;;;;;;;;;8.50;99.90;;;;;;5077343;28;19919;-61
2022/01/31 10:53:01;;;;;;;;;;;8.40;99.90;;;;;;5081166;28;19973;-58
2022/01/31 10:55:27;;;;;;;;;;;8.40;99.90;;;;;;5082674;28;19938;-61
2022/01/31 10:58:07;;;;;;;;;;;8.40;99.80;;;;;;5078346;28;20377;-60
2022/01/31 11:00:33;;;;;;;;;;;8.50;99.40;;;;;;5082311;28;20375;-59
2022/01/31 11:03:00;;;;;;;;;;;8.50;99.50;;;;;;5081425;28;19918;-60
2022/01/31 11:05:26;;;;;;;;;;;8.60;99.30;;;;;;5075168;28;19913;-60
2022/01/31 11:08:11;;;;;;;;;;;8.60;98.80;;;;;;5077403;28;20384;-60
2022/01/31 11:10:36;;;;;;;;;;;8.70;98.00;;;;;;5081695;28;20022;-61
2022/01/31 11:13:02;;;;;;;;;;;8.70;97.80;;;;;;5079993;28;20026;-61
2022/01/31 11:15:30;;;;;;;;;;;8.70;97.20;;;;;;5084026;28;19916;-59
2022/01/31 11:17:59;;;;;;;;;;;8.70;96.20;;;;;;5078773;28;19916;-61
2022/01/31 11:20:24;;;;;;;;;;;8.60;96.90;;;;;;5081086;28;19921;-61
2022/01/31 11:22:56;;;;;;;;;;;8.60;95.60;;;;;;5065609;28;19935;-61
2022/01/31 11:25:26;;;;;;;;;;;8.50;96.60;;;;;;5076242;28;20372;-61
2022/01/31 11:27:53;;;;;;;;;;;8.60;95.80;;;;;;5059224;28;19916;-62
2022/01/31 11:30:18;;;;;;;;;;;8.60;95.60;;;;;;5075979;28;19925;-60
2022/01/31 11:32:45;;;;;;;;;;;8.60;94.90;;;;;;5079168;28;20425;-63
2022/01/31 11:35:11;;;;;;;;;;;8.60;95.70;;;;;;5076910;28;19912;-63
2022/01/31 11:37:37;;;;;;;;;;;8.50;98.30;;;;;;5076375;28;20391;-61
2022/01/31 11:40:05;;;;;;;;;;;8.30;99.90;;;;;;5075189;28;19913;-62
2022/01/31 11:42:31;;;;;;;;;;;8.20;99.90;;;;;;5056141;28;19923;-62
2022/01/31 11:45:02;;;;;;;;;;;8.20;99.90;;;;;;5091665;28;19923;-64
2022/01/31 11:47:29;;;;;;;;;;;8.10;99.90;;;;;;5083726;28;19912;-61
2022/01/31 11:49:57;;;;;;;;;;;8.30;99.90;;;;;;5081612;28;19923;-62
2022/01/31 11:52:23;;;;;;;;;;;8.30;99.40;;;;;;5086990;28;19912;-63
2022/01/31 11:55:01;;;;;;;;;;;8.30;98.60;;;;;;5057150;28;19912;-62
2022/01/31 11:57:28;;;;;;;;;;;8.30;98.50;;;;;;5074103;28;19951;-62
2022/01/31 11:59:58;;;;;;;;;;;8.40;97.90;;;;;;5083251;28;20289;-62
2022/01/31 12:02:25;;;;;;;;;;;8.10;99.80;;;;;;5080553;28;19981;-62
2022/01/31 12:04:52;;;;;;;;;;;7.70;99.90;;;;;;5085838;28;19912;-60
2022/01/31 12:07:30;;;;;;;;;;;7.40;99.90;;;;;;5089596;28;19912;-62
2022/01/31 12:09:58;;;;;;;;;;;7.50;99.90;;;;;;5076114;28;20319;-62
2022/01/31 12:12:35;;;;;;;;;;;7.50;99.90;;;;;;5074399;28;19940;-61
2022/01/31 12:15:22;;;;;;;;;;;7.50;99.90;;;;;;5076392;28;20453;-60
2022/01/31 12:18:23;;;;;;;;;;;7.60;99.90;;;;;;5076420;28;19912;-60
2022/01/31 12:23:47;;;;;;;;;;;7.50;99.90;;;;;;4997631;28;20305;-60
2022/01/31 12:26:27;;;;;;;;;;;7.40;99.90;;;;;;4995398;28;20378;-59
2022/01/31 12:28:56;;;;;;;;;;;7.50;99.90;;;;;;4996976;28;19913;-58
2022/01/31 12:31:22;;;;;;;;;;;7.50;99.90;;;;;;4978844;28;19945;-61
2022/01/31 12:33:48;;;;;;;;;;;7.60;99.90;;;;;;5007490;28;19964;-60
2022/01/31 12:36:25;;;;;;;;;;;7.70;99.90;;;;;;4992772;28;19965;-60
2022/01/31 12:38:50;;;;;;;;;;;7.80;99.90;;;;;;4995640;28;19916;-61
2022/01/31 12:41:31;;;;;;;;;;;7.80;99.90;;;;;;4995952;28;19930;-62
2022/01/31 12:44:15;;;;;;;;;;;7.80;99.90;;;;;;4995990;28;20660;-61
2022/01/31 12:46:48;;;;;;;;;;;7.80;99.40;;;;;;4996181;28;19926;-64
2022/01/31 12:49:14;;;;;;;;;;;7.80;99.10;;;;;;4996112;28;20357;-61
2022/01/31 12:51:56;;;;;;;;;;;7.90;98.70;;;;;;5007335;28;19960;-60
2022/01/31 12:54:22;;;;;;;;;;;7.80;99.10;;;;;;5004735;28;19910;-61
2022/01/31 12:56:47;;;;;;;;;;;7.60;99.90;;;;;;4997134;28;19914;-59
2022/01/31 12:59:15;;;;;;;;;;;7.50;99.90;;;;;;5002636;28;20700;-60
2022/01/31 13:01:42;;;;;;;;;;;7.40;99.90;;;;;;5055055;28;19985;-60
2022/01/31 13:04:09;;;;;;;;;;;7.40;99.90;;;;;;5063555;28;19921;-60
2022/01/31 13:06:54;;;;;;;;;;;7.40;99.40;;;;;;5067720;28;19924;-61
2022/01/31 13:09:30;;;;;;;;;;;7.40;98.10;;;;;;5066608;28;19908;-61
2022/01/31 13:12:01;;;;;;;;;;;7.40;95.90;;;;;;5055956;28;19921;-60
2022/01/31 13:14:27;;;;;;;;;;;7.40;94.50;;;;;;5062839;28;19951;-60
2022/01/31 13:17:26;;;;;;;;;;;7.40;94.00;;;;;;5064169;28;19913;-60
2022/01/31 13:19:49;;;;;;;;;;;7.40;91.90;;;;;;5061406;28;19913;-62
2022/01/31 13:22:25;;;;;;;;;;;7.40;92.40;;;;;;5064537;28;19951;-61
2022/01/31 13:24:53;;;;;;;;;;;7.40;90.70;;;;;;5050583;28;19912;-61
2022/01/31 13:27:20;;;;;;;;;;;7.50;90.70;;;;;;5062380;28;19916;-64
2022/01/31 13:29:47;;;;;;;;;;;7.50;90.70;;;;;;5066067;28;19920;-60
2022/01/31 13:32:12;;;;;;;;;;;7.50;90.60;;;;;;5064954;28;20303;-64
2022/01/31 13:34:45;;;;;;;;;;;7.60;90.60;;;;;;5064168;28;20423;-61
2022/01/31 13:37:46;;;;;;;;;;;7.50;89.80;;;;;;5065830;28;19912;-60
2022/01/31 13:40:23;;;;;;;;;;;7.60;90.10;;;;;;4987643;28;19950;-61
2022/01/31 13:42:56;;;;;;;;;;;7.60;89.30;;;;;;4987083;28;20298;-60
2022/01/31 13:45:36;;;;;;;;;;;7.70;88.30;;;;;;4987085;28;19964;-61
2022/01/31 13:51:02;;;;;;;;;;;7.70;84.30;;;;;;4968945;28;19922;-64
2022/01/31 13:53:31;;;;;;;;;;;7.60;85.70;;;;;;4967035;28;19922;-62
2022/01/31 13:55:58;;;;;;;;;;;7.60;83.10;;;;;;4949282;28;20386;-61
2022/01/31 13:58:29;;;;;;;;;;;7.50;82.30;;;;;;4962056;28;20345;-62
2022/01/31 14:00:54;;;;;;;;;;;7.40;82.80;;;;;;4965778;28;20294;-62
2022/01/31 14:03:21;;;;;;;;;;;7.50;86.90;;;;;;4967481;28;19914;-62
2022/01/31 14:06:02;;;;;;;;;;;7.40;82.30;;;;;;4963611;28;19951;-58
2022/01/31 14:08:28;;;;;;;;;;;7.40;82.50;;;;;;4966347;28;19918;-61
2022/01/31 14:11:05;;;;;;;;;;;7.40;82.40;;;;;;4964099;28;20247;-61
2022/01/31 14:13:32;;;;;;;;;;;7.40;80.70;;;;;;4951122;28;20389;-61
2022/01/31 14:15:58;;;;;;;;;;;7.40;81.40;;;;;;5004225;28;19917;-61
2022/01/31 14:18:23;;;;;;;;;;;7.50;79.40;;;;;;5013148;28;19928;-60
2022/01/31 14:20:53;;;;;;;;;;;7.40;80.20;;;;;;5013121;28;20000;-60
2022/01/31 14:23:19;;;;;;;;;;;7.40;80.80;;;;;;5013366;28;19964;-63
2022/01/31 14:25:45;;;;;;;;;;;7.50;80.40;;;;;;5023704;28;19916;-62
2022/01/31 14:28:13;;;;;;;;;;;7.60;78.00;;;;;;5075034;28;19912;-60
2022/01/31 14:30:45;;;;;;;;;;;7.60;79.70;;;;;;5076883;28;20860;-61
2022/01/31 14:33:14;;;;;;;;;;;7.60;79.70;;;;;;5078129;28;19912;-61
2022/01/31 14:35:40;;;;;;;;;;;7.70;78.30;;;;;;5077931;28;19916;-61
2022/01/31 14:38:24;;;;;;;;;;;7.70;80.00;;;;;;5075920;28;19938;-61
2022/01/31 14:48:58;;;;;;;;;;;7.70;77.20;;;;;;5072830;28;20453;-60
2022/01/31 14:51:24;;;;;;;;;;;7.60;77.60;;;;;;5082773;28;19928;-61
2022/01/31 14:53:57;;;;;;;;;;;7.80;77.00;;;;;;5083161;28;19916;-61
2022/01/31 14:56:23;;;;;;;;;;;7.70;76.40;;;;;;5079739;28;19924;-58
2022/01/31 14:58:49;;;;;;;;;;;7.70;76.30;;;;;;5081819;28;19916;-59
2022/01/31 15:01:14;;;;;;;;;;;7.60;74.50;;;;;;5078541;28;20654;-60
2022/01/31 15:03:40;;;;;;;;;;;7.60;74.50;;;;;;5076585;28;20563;-57
2022/01/31 15:06:05;;;;;;;;;;;7.70;75.50;;;;;;5079020;28;19913;-63
2022/01/31 15:08:31;;;;;;;;;;;7.60;74.70;;;;;;5081649;28;20662;-59
2022/01/31 15:10:56;;;;;;;;;;;7.70;74.70;;;;;;5080125;28;20300;-61
2022/01/31 15:13:22;;;;;;;;;;;7.70;74.90;;;;;;5058775;28;20003;-60
2022/01/31 15:15:52;;;;;;;;;;;7.70;75.00;;;;;;5076339;28;19920;-60
2022/01/31 15:18:18;;;;;;;;;;;7.70;75.20;;;;;;5079851;28;20418;-58
2022/01/31 15:20:43;;;;;;;;;;;7.80;75.40;;;;;;5080851;28;19940;-59